Impacts TAF Board
For situational awareness. Not to be used for flight planning purposes.
IDs:

KATL - Atlanta/Hartsfield-J, GA, US

Issued at 1734 UTC 18 Jun 2019
Updated at 1840 UTC 18 Jun 2019
Potential Impact None Slight Moderate High
Time1811Z 18/19Z 18/20Z 18/21Z 18/22Z 18/23Z 19/00Z 19/01Z 19/02Z 19/03Z 19/04Z 19/05Z 19/06Z 19/07Z>>
Type OBS PRVL PRVL
  [TEMP]  
PRVL
  [TEMP]  
PRVL
  [TEMP]  
PRVL
  [TEMP]  
PRVL PRVL PRVL PRVL PRVL PRVL PRVL PRVL
VIS 9 >6 >6
  [4]  
>6
  [4]  
>6
  [4]  
>6
  [4]  
>6 >6 >6 >6 >6 >6 >6 >6
CIG 30 40 40
  [25]  
40
  [25]  
40
  [25]  
40
  [25]  
40 50 50 50 50 50 50 15
Cover OVC BKN BKN
  [OVC]  
BKN
  [OVC]  
BKN
  [OVC]  
BKN
  [OVC]  
BKN BKN BKN BKN BKN BKN BKN BKN
FltCat MVFR VFR VFR
  [MVFR]  
VFR
  [MVFR]  
VFR
  [MVFR]  
VFR
  [MVFR]  
VFR VFR VFR VFR VFR VFR VFR MVFR
WX -RA -SHRA -SHRA
  [TSRA]  
-SHRA
  [TSRA]  
-SHRA
  [TSRA]  
-SHRA
  [TSRA]  
-SHRA VCSH VCSH VCSH VCSH VCSH VCSH --
WDir 240 220 220
[220]
220
[220]
220
[220]
220
[220]
220 200 200 200 200 200 200 220
WSpd 6 6 6
  [6]  
6
  [6]  
6
  [6]  
6
  [6]  
6 5 5 5 5 5 5 6
WGst -- -- --
  [--]  
--
  [--]  
--
  [--]  
--
  [--]  
-- -- -- -- -- -- -- --
Raw TAF
KATL 181734Z 1818/1924 22006KT P6SM -SHRA FEW020 BKN040
  TEMPO 1820/1824 4SM TSRA OVC025CB
  FM190100 20005KT P6SM VCSH BKN050 BKN080
  FM190700 22006KT P6SM BKN015
  FM191000 24006KT P6SM BKN007
  FM191400 26007KT P6SM VCSH BKN015
  FM191800 25008KT P6SM -SHRA SCT035
  PROB30 1919/1923 4SM TSRA BKN035CB BKN040


Raw METAR
KATL 181811Z 24006KT 9SM -RA FEW020CB BKN030 BKN050 OVC200 27/22 A2998 RMK AO2 LTG DSNT NE CB NE DSNT NE MOV NE TCU DSNT S SHRA VC NE P0000 T02670222
KATL 181803Z 24007KT 6SM RA BKN020CB BKN030 OVC050 27/22 A2998 RMK AO2 LTG DSNT NE CB OHD-NE MOV NE P0000 T02720222
KATL 181752Z 20005KT 10SM -RA FEW023CB BKN030TCU BKN050 OVC200 27/22 A2998 RMK AO2 LTG DSNT NE RAE03B52 SLP142 CB E SW DSNT NE MOV NE TCU E-OHD-W SHRA VC E SE SW P0000 60000 T02720222 10283 20233 58016
KATL 181652Z 23006KT 10SM -RA FEW020CB SCT030TCU BKN050 OVC200 27/22 A3000 RMK AO2 LTG DSNT NE RAB03 SLP147 CB NE MOV NE TCU OHD-NE-SE-S SHRA VC NE P0000 T02670222
KATL 181552Z 22007KT 10SM FEW018CB SCT028TCU BKN070 BKN250 28/22 A3002 RMK AO2 SLP154 CB NW DSNT N MOV NE TCU N-NE-E-SE NW SHRA VC SW-NW T02780222

METAR Board
Radar Display
Forecast Discussion
For situational awareness. Not to be used for flight planning purposes.